Time;durP1;ratioP1;P1;durP2;ratioP2;P2;SDS_P1;SDS_P2;PMS_P1;PMS_P2;Temp;Humidity;BMP_temperature;BMP_pressure;BME280_temperature;BME280_humidity;BME280_pressure;Samples;Min_cycle;Max_cycle;Signal;HPM_P1;HPM_P2
2022/11/18 00:01:17;;;;;;;;;;;9.40;86.80;;;;;;5051145;28;20318;-77
2022/11/18 00:03:43;;;;;;;;;;;9.40;86.80;;;;;;5060803;28;20274;-79
2022/11/18 00:06:16;;;;;;;;;;;9.40;86.80;;;;;;5066349;28;19913;-80
2022/11/18 00:08:41;;;;;;;;;;;9.50;86.60;;;;;;5060073;28;19937;-78
2022/11/18 00:11:08;;;;;;;;;;;9.50;86.70;;;;;;5083054;28;19943;-78
2022/11/18 00:16:18;;;;;;;;;;;9.60;86.40;;;;;;5064914;28;19959;-79
2022/11/18 00:18:43;;;;;;;;;;;9.60;86.50;;;;;;5074400;28;20389;-80
2022/11/18 00:21:10;;;;;;;;;;;9.60;86.40;;;;;;5071727;28;19935;-80
2022/11/18 00:23:35;;;;;;;;;;;9.60;86.10;;;;;;5071821;28;19917;-80
2022/11/18 00:26:02;;;;;;;;;;;9.60;86.10;;;;;;5070520;28;20966;-80
2022/11/18 00:28:27;;;;;;;;;;;9.60;86.10;;;;;;5073294;28;19940;-80
2022/11/18 00:30:58;;;;;;;;;;;9.60;85.80;;;;;;5074373;28;19915;-80
2022/11/18 00:33:24;;;;;;;;;;;9.60;86.00;;;;;;5073104;28;19921;-80
2022/11/18 00:35:53;;;;;;;;;;;9.70;86.30;;;;;;5066779;28;19913;-80
2022/11/18 00:38:18;;;;;;;;;;;9.70;85.80;;;;;;5068536;28;20242;-79
2022/11/18 00:40:44;;;;;;;;;;;9.70;85.70;;;;;;5071307;28;19908;-80
2022/11/18 00:43:09;;;;;;;;;;;9.80;85.90;;;;;;5075262;28;19912;-80
2022/11/18 00:45:35;;;;;;;;;;;9.90;85.60;;;;;;5071648;28;19919;-79
2022/11/18 00:48:01;;;;;;;;;;;9.80;85.30;;;;;;5065752;28;19909;-79
2022/11/18 00:50:27;;;;;;;;;;;9.80;85.30;;;;;;5073363;28;19925;-79
2022/11/18 00:52:52;;;;;;;;;;;9.80;85.40;;;;;;5065985;28;19998;-78
2022/11/18 00:55:18;;;;;;;;;;;9.90;85.60;;;;;;5054041;28;19909;-79
2022/11/18 00:57:43;;;;;;;;;;;9.90;85.50;;;;;;5056306;28;20332;-79
2022/11/18 01:00:09;;;;;;;;;;;9.90;85.90;;;;;;5063083;28;20405;-80
2022/11/18 01:02:34;;;;;;;;;;;9.90;86.00;;;;;;5072677;28;20289;-80
2022/11/18 01:05:00;;;;;;;;;;;9.90;86.20;;;;;;5067411;28;19909;-78
2022/11/18 01:07:25;;;;;;;;;;;9.90;85.80;;;;;;5078837;28;19975;-80
2022/11/18 01:09:51;;;;;;;;;;;9.90;86.00;;;;;;5073043;28;20326;-80
2022/11/18 01:15:01;;;;;;;;;;;9.80;86.00;;;;;;5081798;28;19959;-77
2022/11/18 01:17:28;;;;;;;;;;;9.80;86.10;;;;;;5071829;28;19909;-79
2022/11/18 01:19:54;;;;;;;;;;;9.70;86.10;;;;;;5073817;28;19914;-78
2022/11/18 01:22:19;;;;;;;;;;;9.70;86.40;;;;;;5066188;28;20003;-80
2022/11/18 01:24:45;;;;;;;;;;;9.70;86.60;;;;;;5064127;28;20365;-80
2022/11/18 01:27:10;;;;;;;;;;;9.80;86.60;;;;;;5067212;28;19995;-79
2022/11/18 01:29:36;;;;;;;;;;;9.80;86.80;;;;;;5058324;28;19959;-79
2022/11/18 01:32:01;;;;;;;;;;;9.80;86.80;;;;;;5059019;28;19923;-80
2022/11/18 01:34:28;;;;;;;;;;;9.80;86.60;;;;;;5072223;28;19912;-80
2022/11/18 01:36:55;;;;;;;;;;;9.80;86.60;;;;;;5072228;28;19919;-80
2022/11/18 01:39:20;;;;;;;;;;;9.90;86.70;;;;;;5057468;28;19983;-80
2022/11/18 01:41:46;;;;;;;;;;;9.90;86.70;;;;;;5057116;28;20196;-80
2022/11/18 01:44:30;;;;;;;;;;;9.90;86.70;;;;;;5074938;28;20369;-80
2022/11/18 01:46:55;;;;;;;;;;;10.00;86.60;;;;;;5070774;28;19908;-79
2022/11/18 01:49:21;;;;;;;;;;;10.00;87.00;;;;;;5074290;28;19958;-79
2022/11/18 01:51:49;;;;;;;;;;;10.00;86.50;;;;;;5067379;28;19917;-77
2022/11/18 01:54:20;;;;;;;;;;;10.00;86.20;;;;;;5083459;28;19940;-79
2022/11/18 01:56:49;;;;;;;;;;;10.00;86.10;;;;;;5076493;28;19908;-79
2022/11/18 01:59:18;;;;;;;;;;;10.00;86.10;;;;;;5080127;28;19919;-80
2022/11/18 02:01:43;;;;;;;;;;;10.00;86.80;;;;;;5077233;28;19919;-79
2022/11/18 02:04:10;;;;;;;;;;;10.00;86.70;;;;;;5073355;28;19913;-79
2022/11/18 02:06:35;;;;;;;;;;;10.00;86.70;;;;;;5073325;28;20343;-78
2022/11/18 02:09:01;;;;;;;;;;;10.00;86.50;;;;;;5067964;28;19913;-79
2022/11/18 02:14:11;;;;;;;;;;;9.90;86.60;;;;;;5075020;28;19989;-79
2022/11/18 02:16:39;;;;;;;;;;;9.90;87.20;;;;;;5071588;28;20378;-79
2022/11/18 02:19:24;;;;;;;;;;;10.00;87.70;;;;;;5072566;28;19912;-79
2022/11/18 02:22:01;;;;;;;;;;;10.00;88.00;;;;;;5064584;28;20388;-78
2022/11/18 02:24:35;;;;;;;;;;;9.90;87.50;;;;;;5067920;28;19932;-78
2022/11/18 02:27:19;;;;;;;;;;;9.80;87.60;;;;;;5062640;28;19908;-79
2022/11/18 02:29:49;;;;;;;;;;;9.80;87.80;;;;;;5075268;28;19909;-80
2022/11/18 02:32:17;;;;;;;;;;;9.70;87.90;;;;;;5073339;28;19916;-79
2022/11/18 02:34:46;;;;;;;;;;;9.60;87.80;;;;;;5068926;28;19979;-80
2022/11/18 02:37:30;;;;;;;;;;;9.60;88.00;;;;;;5065184;28;19916;-79
2022/11/18 02:39:58;;;;;;;;;;;9.60;88.50;;;;;;5067256;28;20313;-79
2022/11/18 02:42:25;;;;;;;;;;;9.60;88.60;;;;;;5072030;28;19909;-79
2022/11/18 02:44:54;;;;;;;;;;;9.60;88.90;;;;;;5068652;28;19909;-79
2022/11/18 02:47:19;;;;;;;;;;;9.60;88.90;;;;;;5073584;28;19938;-79
2022/11/18 02:49:51;;;;;;;;;;;9.60;89.00;;;;;;5084230;22;19924;-84
2022/11/18 02:52:19;;;;;;;;;;;9.60;88.90;;;;;;5067125;28;19917;-84
2022/11/18 02:54:46;;;;;;;;;;;9.60;89.00;;;;;;5063363;28;20297;-83
2022/11/18 02:57:12;;;;;;;;;;;9.70;89.20;;;;;;5071450;28;19920;-84
2022/11/18 02:59:38;;;;;;;;;;;9.70;88.60;;;;;;5070040;28;19920;-83
2022/11/18 03:02:03;;;;;;;;;;;9.60;88.20;;;;;;5072811;28;19961;-84
2022/11/18 03:04:29;;;;;;;;;;;9.60;88.20;;;;;;5067223;28;19982;-83
2022/11/18 03:07:10;;;;;;;;;;;9.40;88.30;;;;;;5071105;28;19919;-83
2022/11/18 03:09:37;;;;;;;;;;;9.30;88.40;;;;;;5072768;28;19909;-84
2022/11/18 03:12:23;;;;;;;;;;;9.30;88.30;;;;;;5076961;28;19912;-83
2022/11/18 03:14:48;;;;;;;;;;;9.10;88.10;;;;;;5080297;28;19923;-84
2022/11/18 03:17:34;;;;;;;;;;;9.10;88.70;;;;;;5074175;28;19912;-84
2022/11/18 03:20:02;;;;;;;;;;;9.00;88.60;;;;;;5071901;28;19912;-84
2022/11/18 03:22:37;;;;;;;;;;;9.00;88.60;;;;;;5065135;28;20371;-84
2022/11/18 03:25:19;;;;;;;;;;;8.90;88.40;;;;;;5075448;28;19938;-84
2022/11/18 03:28:09;;;;;;;;;;;8.90;88.80;;;;;;5067026;28;19913;-84
2022/11/18 03:30:36;;;;;;;;;;;8.90;88.90;;;;;;5079718;28;20964;-83
2022/11/18 03:33:04;;;;;;;;;;;8.90;89.20;;;;;;5069107;28;19967;-84
2022/11/18 03:35:31;;;;;;;;;;;9.00;89.10;;;;;;5067196;28;19987;-84
2022/11/18 03:38:00;;;;;;;;;;;9.00;89.00;;;;;;5074758;28;19912;-83
2022/11/18 03:40:28;;;;;;;;;;;9.00;88.80;;;;;;5076635;28;19935;-83
2022/11/18 03:43:00;;;;;;;;;;;9.10;88.90;;;;;;5091073;28;19913;-84
2022/11/18 03:45:44;;;;;;;;;;;9.10;89.20;;;;;;5088258;28;19920;-83
2022/11/18 03:48:12;;;;;;;;;;;9.20;89.10;;;;;;5073959;28;19913;-84
2022/11/18 03:50:49;;;;;;;;;;;9.20;88.70;;;;;;5073347;28;19917;-83
2022/11/18 03:53:16;;;;;;;;;;;9.20;88.50;;;;;;5070986;28;19916;-83
2022/11/18 03:55:43;;;;;;;;;;;9.20;88.60;;;;;;5075584;28;19912;-83
2022/11/18 03:58:13;;;;;;;;;;;9.20;88.50;;;;;;5075517;28;19909;-83
2022/11/18 04:00:44;;;;;;;;;;;9.20;88.70;;;;;;5073201;28;19909;-84
2022/11/18 04:03:10;;;;;;;;;;;9.20;88.60;;;;;;5072256;28;19920;-83
2022/11/18 04:05:37;;;;;;;;;;;9.20;88.50;;;;;;5071731;28;19916;-83
2022/11/18 04:08:05;;;;;;;;;;;9.30;88.60;;;;;;5077283;28;19916;-83
2022/11/18 04:10:37;;;;;;;;;;;9.30;88.60;;;;;;5078894;28;19913;-83
2022/11/18 04:13:08;;;;;;;;;;;9.30;88.60;;;;;;5079056;28;19917;-84
2022/11/18 04:15:37;;;;;;;;;;;9.40;88.70;;;;;;5072451;28;19909;-84
2022/11/18 04:18:03;;;;;;;;;;;9.40;88.80;;;;;;5080374;28;19912;-84
2022/11/18 04:20:30;;;;;;;;;;;9.50;88.50;;;;;;5079504;28;20017;-84
2022/11/18 04:22:55;;;;;;;;;;;9.50;88.50;;;;;;5078784;28;19916;-84
2022/11/18 04:25:23;;;;;;;;;;;9.50;88.60;;;;;;5077860;28;19913;-83
2022/11/18 04:27:49;;;;;;;;;;;9.50;89.00;;;;;;5059785;28;20028;-83
2022/11/18 04:30:14;;;;;;;;;;;9.50;89.20;;;;;;5060320;28;20435;-83
2022/11/18 04:32:40;;;;;;;;;;;9.50;88.80;;;;;;5070633;28;19985;-84
2022/11/18 04:35:05;;;;;;;;;;;9.60;88.80;;;;;;5081601;28;19951;-84
2022/11/18 04:37:31;;;;;;;;;;;9.60;88.50;;;;;;5079822;28;19919;-84
2022/11/18 04:39:56;;;;;;;;;;;9.60;88.80;;;;;;5081473;28;19927;-83
2022/11/18 04:42:22;;;;;;;;;;;9.60;88.50;;;;;;5080876;28;19915;-83
2022/11/18 04:44:47;;;;;;;;;;;9.60;88.60;;;;;;5077546;28;19991;-83
2022/11/18 04:47:12;;;;;;;;;;;9.60;88.60;;;;;;5079890;28;19916;-84
2022/11/18 04:49:38;;;;;;;;;;;9.60;88.60;;;;;;5081186;28;20326;-84
2022/11/18 04:52:03;;;;;;;;;;;9.60;88.60;;;;;;5079806;28;19919;-84
2022/11/18 04:54:29;;;;;;;;;;;9.70;88.90;;;;;;5079589;28;19913;-83
2022/11/18 04:56:55;;;;;;;;;;;9.70;88.80;;;;;;5079099;28;19908;-83
2022/11/18 04:59:24;;;;;;;;;;;9.60;88.70;;;;;;5076550;28;19909;-83
2022/11/18 05:01:50;;;;;;;;;;;9.60;88.70;;;;;;5079726;28;20414;-83
2022/11/18 05:04:17;;;;;;;;;;;9.70;88.90;;;;;;5074140;28;19917;-83
2022/11/18 05:06:43;;;;;;;;;;;9.70;88.80;;;;;;5080746;28;20006;-84
2022/11/18 05:09:08;;;;;;;;;;;9.70;88.70;;;;;;5084372;28;20427;-83
2022/11/18 05:14:18;;;;;;;;;;;9.80;88.50;;;;;;5084145;28;19966;-84
2022/11/18 05:16:43;;;;;;;;;;;9.80;88.60;;;;;;5079330;28;19913;-83
2022/11/18 05:19:09;;;;;;;;;;;9.80;88.70;;;;;;5078233;28;19919;-84
2022/11/18 05:21:35;;;;;;;;;;;9.80;88.60;;;;;;5055221;28;19951;-83
2022/11/18 05:24:01;;;;;;;;;;;9.80;88.40;;;;;;5065836;28;19944;-83
2022/11/18 05:26:26;;;;;;;;;;;9.80;88.90;;;;;;5073464;28;19957;-83
2022/11/18 05:28:52;;;;;;;;;;;9.80;88.90;;;;;;5073208;28;19916;-83
2022/11/18 05:31:17;;;;;;;;;;;9.70;88.70;;;;;;5072363;28;19923;-83
2022/11/18 05:33:43;;;;;;;;;;;9.70;88.80;;;;;;5071746;28;19920;-83
2022/11/18 05:36:10;;;;;;;;;;;9.70;88.90;;;;;;5069505;28;19913;-83
2022/11/18 05:38:36;;;;;;;;;;;9.80;88.80;;;;;;5072119;28;19919;-83
2022/11/18 05:41:01;;;;;;;;;;;9.80;88.80;;;;;;5075143;28;19908;-83
2022/11/18 05:43:27;;;;;;;;;;;9.80;88.80;;;;;;5071315;28;19922;-83
2022/11/18 05:45:53;;;;;;;;;;;9.80;88.80;;;;;;5072507;28;19919;-83
2022/11/18 05:48:18;;;;;;;;;;;9.80;88.80;;;;;;5074135;28;19908;-83
2022/11/18 05:50:48;;;;;;;;;;;9.90;88.80;;;;;;5071904;28;20005;-83
2022/11/18 05:53:14;;;;;;;;;;;9.80;88.70;;;;;;5070819;28;19917;-83
2022/11/18 05:55:46;;;;;;;;;;;9.80;88.80;;;;;;5073960;28;19908;-83
2022/11/18 05:58:12;;;;;;;;;;;9.80;88.80;;;;;;5073997;28;19908;-83
2022/11/18 06:00:37;;;;;;;;;;;9.80;88.90;;;;;;5073443;28;19920;-83
2022/11/18 06:03:08;;;;;;;;;;;9.90;88.70;;;;;;5067826;28;20003;-83
2022/11/18 06:05:34;;;;;;;;;;;9.90;88.90;;;;;;5073461;28;19951;-83
2022/11/18 06:07:59;;;;;;;;;;;9.90;88.80;;;;;;5069511;28;19909;-83
2022/11/18 06:10:29;;;;;;;;;;;9.90;88.90;;;;;;5055820;28;19909;-83
2022/11/18 06:12:57;;;;;;;;;;;9.90;88.80;;;;;;5053431;28;19920;-83
2022/11/18 06:15:25;;;;;;;;;;;10.00;88.60;;;;;;5076768;28;19916;-84
2022/11/18 06:18:00;;;;;;;;;;;10.00;88.60;;;;;;5075509;28;19916;-83
2022/11/18 06:20:26;;;;;;;;;;;9.90;88.30;;;;;;5070084;28;19927;-82
2022/11/18 06:22:53;;;;;;;;;;;9.80;88.00;;;;;;5079023;28;19912;-83
2022/11/18 06:25:18;;;;;;;;;;;9.80;88.60;;;;;;5073450;28;19912;-83
2022/11/18 06:27:45;;;;;;;;;;;9.80;88.60;;;;;;5075295;28;19909;-83
2022/11/18 06:30:10;;;;;;;;;;;9.80;88.50;;;;;;5073545;28;20000;-83
2022/11/18 06:32:36;;;;;;;;;;;9.80;88.80;;;;;;5067141;28;19923;-83
2022/11/18 06:35:01;;;;;;;;;;;9.80;88.80;;;;;;5074992;28;19912;-82
2022/11/18 06:37:27;;;;;;;;;;;9.80;88.80;;;;;;5072719;28;19913;-83
2022/11/18 06:39:52;;;;;;;;;;;9.80;88.80;;;;;;5069443;28;19919;-82
2022/11/18 06:45:02;;;;;;;;;;;9.80;88.70;;;;;;5077179;28;19916;-83
2022/11/18 06:47:28;;;;;;;;;;;9.80;88.90;;;;;;5074738;28;20293;-83
2022/11/18 06:49:53;;;;;;;;;;;9.80;88.80;;;;;;5070445;28;19967;-83
2022/11/18 06:52:20;;;;;;;;;;;9.80;88.70;;;;;;5069267;28;19921;-84
2022/11/18 06:54:45;;;;;;;;;;;9.90;88.60;;;;;;5087701;28;19919;-84
2022/11/18 06:57:11;;;;;;;;;;;9.90;88.50;;;;;;5063761;28;19916;-85
2022/11/18 06:59:36;;;;;;;;;;;10.00;88.70;;;;;;5067372;28;19912;-84
2022/11/18 07:02:02;;;;;;;;;;;10.00;88.60;;;;;;5071366;28;19912;-84
2022/11/18 07:04:27;;;;;;;;;;;10.00;88.70;;;;;;5073095;28;19944;-83
2022/11/18 07:06:52;;;;;;;;;;;10.00;88.60;;;;;;5073733;28;19915;-83
2022/11/18 07:09:18;;;;;;;;;;;10.00;88.50;;;;;;5064232;28;19916;-82
2022/11/18 07:11:43;;;;;;;;;;;10.00;88.60;;;;;;5070680;28;19920;-83
2022/11/18 07:14:09;;;;;;;;;;;9.90;88.60;;;;;;5071465;28;19952;-83
2022/11/18 07:16:35;;;;;;;;;;;9.90;88.70;;;;;;5058860;28;19912;-84
2022/11/18 07:19:01;;;;;;;;;;;9.90;88.80;;;;;;5063845;28;19920;-83
2022/11/18 07:21:27;;;;;;;;;;;9.90;88.80;;;;;;5073484;28;19916;-83
2022/11/18 07:23:54;;;;;;;;;;;9.90;88.80;;;;;;5057784;28;19958;-83
2022/11/18 07:26:20;;;;;;;;;;;10.00;88.70;;;;;;5087673;28;19916;-83
2022/11/18 07:28:45;;;;;;;;;;;10.00;88.90;;;;;;5067432;28;19913;-83
2022/11/18 07:31:12;;;;;;;;;;;10.00;89.00;;;;;;5064955;28;20031;-83
2022/11/18 07:33:38;;;;;;;;;;;10.00;89.00;;;;;;5070333;28;20003;-83
2022/11/18 07:36:06;;;;;;;;;;;10.00;88.70;;;;;;5060591;28;19962;-83
2022/11/18 07:38:32;;;;;;;;;;;10.00;88.70;;;;;;5071160;28;19965;-83
2022/11/18 07:41:16;;;;;;;;;;;10.10;88.60;;;;;;5072777;28;19912;-83
2022/11/18 07:43:42;;;;;;;;;;;10.10;88.70;;;;;;5065035;28;19927;-83
2022/11/18 07:46:16;;;;;;;;;;;10.10;88.60;;;;;;5064402;28;19912;-81
2022/11/18 07:48:42;;;;;;;;;;;10.10;88.60;;;;;;5063349;28;19966;-82
2022/11/18 07:51:08;;;;;;;;;;;10.10;88.60;;;;;;5061370;28;19912;-82
2022/11/18 07:53:33;;;;;;;;;;;10.10;88.80;;;;;;5069216;28;20431;-84
2022/11/18 07:55:59;;;;;;;;;;;10.20;88.50;;;;;;5069947;28;19991;-82
2022/11/18 07:58:25;;;;;;;;;;;10.10;88.40;;;;;;5087109;28;20372;-82
2022/11/18 08:00:50;;;;;;;;;;;10.10;88.40;;;;;;5072538;28;20418;-82
2022/11/18 08:03:15;;;;;;;;;;;10.10;88.30;;;;;;5059619;28;20492;-83
2022/11/18 08:05:41;;;;;;;;;;;10.10;88.60;;;;;;5054256;28;19916;-84
2022/11/18 08:08:06;;;;;;;;;;;10.20;88.50;;;;;;5060070;28;19912;-84
2022/11/18 08:10:32;;;;;;;;;;;10.20;88.30;;;;;;5075745;28;19909;-84
2022/11/18 08:12:57;;;;;;;;;;;10.30;88.30;;;;;;5068783;28;19955;-84
2022/11/18 08:15:23;;;;;;;;;;;10.30;88.50;;;;;;5071461;28;20427;-84
2022/11/18 08:17:48;;;;;;;;;;;10.30;88.40;;;;;;5071662;28;19944;-84
2022/11/18 08:20:14;;;;;;;;;;;10.30;88.30;;;;;;5075334;28;19916;-84
2022/11/18 08:22:39;;;;;;;;;;;10.50;88.40;;;;;;5075038;28;20301;-83
2022/11/18 08:25:05;;;;;;;;;;;10.50;88.20;;;;;;5075432;28;19920;-83
2022/11/18 08:27:31;;;;;;;;;;;10.50;88.10;;;;;;5097071;28;20120;-84
2022/11/18 08:29:56;;;;;;;;;;;10.50;88.30;;;;;;5074569;28;19951;-84
2022/11/18 08:32:21;;;;;;;;;;;10.60;88.20;;;;;;5071893;28;19913;-83
2022/11/18 08:34:47;;;;;;;;;;;10.70;87.80;;;;;;5082999;28;19943;-84
2022/11/18 08:37:12;;;;;;;;;;;10.80;88.00;;;;;;5093743;28;19909;-84
2022/11/18 08:39:38;;;;;;;;;;;10.80;86.80;;;;;;5072131;28;19980;-84
2022/11/18 08:42:03;;;;;;;;;;;10.70;86.80;;;;;;5079957;28;19913;-84
2022/11/18 08:44:32;;;;;;;;;;;10.70;86.40;;;;;;5075529;28;19913;-84
2022/11/18 08:46:57;;;;;;;;;;;10.60;86.50;;;;;;5071524;28;19913;-83
2022/11/18 08:49:23;;;;;;;;;;;10.60;86.80;;;;;;5096736;22;19929;-76
2022/11/18 08:51:50;;;;;;;;;;;10.60;86.80;;;;;;5089224;28;22219;-79
2022/11/18 08:54:15;;;;;;;;;;;10.70;86.40;;;;;;5060819;28;19916;-78
2022/11/18 08:56:40;;;;;;;;;;;10.70;86.40;;;;;;5094980;28;19946;-77
2022/11/18 08:59:07;;;;;;;;;;;10.80;86.70;;;;;;5100085;28;19919;-79
2022/11/18 09:01:34;;;;;;;;;;;10.80;86.30;;;;;;5065466;28;19912;-79
2022/11/18 09:03:59;;;;;;;;;;;10.90;86.00;;;;;;5077438;28;19996;-78
2022/11/18 09:06:25;;;;;;;;;;;10.80;85.80;;;;;;5061396;28;19960;-79
2022/11/18 09:08:51;;;;;;;;;;;10.80;86.30;;;;;;5073989;28;19920;-79
2022/11/18 09:11:18;;;;;;;;;;;10.80;85.80;;;;;;5059670;28;19908;-79
2022/11/18 09:13:44;;;;;;;;;;;10.80;85.90;;;;;;5057057;28;19917;-79
2022/11/18 09:16:09;;;;;;;;;;;10.90;85.20;;;;;;5064562;28;19918;-79
2022/11/18 09:18:35;;;;;;;;;;;10.80;85.70;;;;;;5077619;28;19915;-78
2022/11/18 09:21:02;;;;;;;;;;;10.90;85.40;;;;;;5075295;28;19912;-78
2022/11/18 09:23:27;;;;;;;;;;;10.80;85.60;;;;;;5040281;28;19928;-79
2022/11/18 09:25:56;;;;;;;;;;;10.90;85.60;;;;;;5068150;28;19947;-79
2022/11/18 09:28:22;;;;;;;;;;;10.90;85.40;;;;;;5059509;28;20378;-79
2022/11/18 09:30:47;;;;;;;;;;;10.80;85.70;;;;;;5076211;28;19909;-79
2022/11/18 09:33:14;;;;;;;;;;;10.90;85.90;;;;;;5076289;28;19912;-78
2022/11/18 09:35:43;;;;;;;;;;;10.90;86.10;;;;;;5072251;28;19913;-78
2022/11/18 09:38:09;;;;;;;;;;;10.90;86.00;;;;;;5055893;28;19915;-79
2022/11/18 09:40:51;;;;;;;;;;;10.90;86.00;;;;;;5077234;28;19913;-79
2022/11/18 09:43:28;;;;;;;;;;;10.90;85.90;;;;;;5059154;28;19909;-79
2022/11/18 09:46:02;;;;;;;;;;;10.90;85.90;;;;;;5076144;28;19983;-77
2022/11/18 09:51:12;;;;;;;;;;;11.00;85.70;;;;;;5078304;28;20399;-78
2022/11/18 09:53:40;;;;;;;;;;;10.90;86.00;;;;;;5059313;28;20374;-78
2022/11/18 09:56:11;;;;;;;;;;;11.00;85.90;;;;;;5057345;28;19908;-79
2022/11/18 09:58:37;;;;;;;;;;;11.00;85.90;;;;;;5039505;28;20011;-79
2022/11/18 10:01:03;;;;;;;;;;;11.00;85.90;;;;;;5057041;28;19913;-79
2022/11/18 10:03:29;;;;;;;;;;;11.00;85.80;;;;;;5072098;28;19912;-78
2022/11/18 10:06:08;;;;;;;;;;;11.00;85.50;;;;;;5080983;28;20293;-78
2022/11/18 10:08:45;;;;;;;;;;;11.00;85.60;;;;;;5056846;28;19908;-78
2022/11/18 10:11:13;;;;;;;;;;;11.00;85.70;;;;;;5074985;28;19908;-79
2022/11/18 10:13:58;;;;;;;;;;;11.10;85.40;;;;;;5074671;28;19938;-79
2022/11/18 10:16:30;;;;;;;;;;;11.20;84.00;;;;;;5073717;28;19935;-78
2022/11/18 10:19:09;;;;;;;;;;;11.20;84.20;;;;;;5072116;28;19912;-78
2022/11/18 10:21:40;;;;;;;;;;;11.10;83.90;;;;;;5075054;28;19908;-77
2022/11/18 10:24:08;;;;;;;;;;;11.10;83.90;;;;;;5072627;28;20362;-79
2022/11/18 10:26:35;;;;;;;;;;;11.10;83.90;;;;;;5060654;28;19991;-78
2022/11/18 10:29:00;;;;;;;;;;;11.20;83.90;;;;;;5079285;28;19912;-78
2022/11/18 10:31:26;;;;;;;;;;;11.20;83.80;;;;;;5073897;28;19909;-78
2022/11/18 10:34:01;;;;;;;;;;;11.20;83.90;;;;;;5075344;28;19909;-78
2022/11/18 10:36:27;;;;;;;;;;;11.30;83.80;;;;;;5082335;28;19931;-79
2022/11/18 10:39:05;;;;;;;;;;;11.30;83.10;;;;;;5077681;28;19913;-77
2022/11/18 10:41:36;;;;;;;;;;;11.20;83.60;;;;;;5062079;28;19912;-79
2022/11/18 10:44:02;;;;;;;;;;;11.20;83.30;;;;;;5037401;28;20259;-78
2022/11/18 10:46:32;;;;;;;;;;;11.30;83.80;;;;;;5070816;28;19919;-78
2022/11/18 10:49:18;;;;;;;;;;;11.40;83.10;;;;;;5070375;28;19919;-77
2022/11/18 10:51:45;;;;;;;;;;;11.30;82.80;;;;;;5102466;28;19924;-77
2022/11/18 10:54:21;;;;;;;;;;;11.40;82.30;;;;;;5086188;28;19980;-80
2022/11/18 10:56:51;;;;;;;;;;;11.30;82.60;;;;;;5058235;28;19948;-80
2022/11/18 10:59:29;;;;;;;;;;;11.30;82.90;;;;;;5076638;28;20328;-80
2022/11/18 11:02:06;;;;;;;;;;;11.40;82.60;;;;;;5076620;28;19916;-80
2022/11/18 11:04:32;;;;;;;;;;;11.50;82.60;;;;;;5064560;28;19965;-79
2022/11/18 11:06:58;;;;;;;;;;;11.60;81.90;;;;;;5074968;28;19948;-80
2022/11/18 11:09:26;;;;;;;;;;;11.70;81.80;;;;;;5048255;28;20388;-79
2022/11/18 11:11:59;;;;;;;;;;;11.80;82.00;;;;;;5055421;28;19916;-80
2022/11/18 11:14:25;;;;;;;;;;;11.80;81.60;;;;;;5046590;28;19921;-80
2022/11/18 11:16:55;;;;;;;;;;;11.80;81.40;;;;;;5046051;28;19913;-78
2022/11/18 11:19:22;;;;;;;;;;;11.80;81.60;;;;;;5076647;28;20388;-79
2022/11/18 11:21:48;;;;;;;;;;;11.70;81.50;;;;;;5069248;28;20003;-81
2022/11/18 11:24:13;;;;;;;;;;;11.60;82.00;;;;;;5068740;28;19959;-81
2022/11/18 11:26:56;;;;;;;;;;;11.60;81.70;;;;;;5063146;28;19974;-82
2022/11/18 11:29:40;;;;;;;;;;;11.70;81.60;;;;;;5067000;28;20008;-81
2022/11/18 11:32:23;;;;;;;;;;;11.60;81.90;;;;;;5046064;28;19992;-78
2022/11/18 11:35:07;;;;;;;;;;;11.60;81.50;;;;;;5065961;28;20297;-80
2022/11/18 11:37:54;;;;;;;;;;;11.60;81.00;;;;;;5055704;28;19968;-80
2022/11/18 11:40:28;;;;;;;;;;;11.60;81.50;;;;;;5075970;28;19913;-80
2022/11/18 11:43:12;;;;;;;;;;;11.60;81.40;;;;;;5057773;28;19919;-80
2022/11/18 11:45:49;;;;;;;;;;;11.80;80.70;;;;;;5071087;28;19916;-82
2022/11/18 11:48:33;;;;;;;;;;;12.00;79.10;;;;;;5076550;28;19920;-81
2022/11/18 11:51:18;;;;;;;;;;;12.10;79.80;;;;;;5066418;28;20422;-81
2022/11/18 11:53:44;;;;;;;;;;;12.10;80.00;;;;;;5068420;28;19922;-81
2022/11/18 11:56:29;;;;;;;;;;;12.10;80.20;;;;;;5086914;28;19951;-81
2022/11/18 11:58:55;;;;;;;;;;;12.20;80.10;;;;;;5071928;28;19915;-81
2022/11/18 12:01:20;;;;;;;;;;;12.20;80.20;;;;;;5048164;28;19920;-86
2022/11/18 12:03:59;;;;;;;;;;;12.30;79.20;;;;;;5055306;28;20370;-80
2022/11/18 12:06:25;;;;;;;;;;;12.40;78.90;;;;;;5067349;28;19947;-81
2022/11/18 12:09:04;;;;;;;;;;;12.40;78.70;;;;;;5065960;28;20281;-81
2022/11/18 12:11:47;;;;;;;;;;;12.50;78.40;;;;;;5064225;28;19959;-81
2022/11/18 12:14:19;;;;;;;;;;;12.60;78.60;;;;;;5071043;28;20285;-82
2022/11/18 12:16:49;;;;;;;;;;;12.60;78.00;;;;;;5074634;28;19916;-80
2022/11/18 12:19:16;;;;;;;;;;;12.60;78.10;;;;;;5078128;28;19917;-81
2022/11/18 12:21:45;;;;;;;;;;;12.60;77.40;;;;;;5061002;28;19935;-81
2022/11/18 12:24:16;;;;;;;;;;;12.70;76.70;;;;;;5080571;28;19913;-79
2022/11/18 12:26:42;;;;;;;;;;;12.70;76.50;;;;;;5073576;28;19912;-80
2022/11/18 12:29:17;;;;;;;;;;;12.60;76.70;;;;;;5065286;28;20306;-80
2022/11/18 12:31:42;;;;;;;;;;;12.50;76.20;;;;;;5075934;28;19916;-80
2022/11/18 12:34:19;;;;;;;;;;;12.50;76.40;;;;;;5073084;28;19928;-80
2022/11/18 12:36:44;;;;;;;;;;;12.30;76.40;;;;;;5083965;28;19916;-81
2022/11/18 12:39:22;;;;;;;;;;;12.30;77.40;;;;;;5058359;28;19998;-81
2022/11/18 12:44:41;;;;;;;;;;;12.30;76.90;;;;;;5078222;28;20310;-80
2022/11/18 12:47:08;;;;;;;;;;;12.30;76.10;;;;;;5077084;28;19928;-80
2022/11/18 12:49:36;;;;;;;;;;;12.50;75.80;;;;;;5056965;28;20358;-79
2022/11/18 12:52:22;;;;;;;;;;;12.60;75.20;;;;;;5078140;28;19916;-80
2022/11/18 12:54:48;;;;;;;;;;;12.70;74.90;;;;;;5075683;28;19916;-81
2022/11/18 12:57:16;;;;;;;;;;;13.10;74.70;;;;;;5090909;28;20071;-81
2022/11/18 12:59:41;;;;;;;;;;;13.10;73.60;;;;;;5086228;28;19908;-79
2022/11/18 13:02:10;;;;;;;;;;;13.00;73.20;;;;;;5081581;28;19920;-79
2022/11/18 13:04:35;;;;;;;;;;;12.90;73.90;;;;;;5103083;28;19908;-82
2022/11/18 13:07:01;;;;;;;;;;;12.70;74.40;;;;;;5071038;28;19967;-81
2022/11/18 13:09:29;;;;;;;;;;;12.60;73.60;;;;;;5078062;28;19919;-82
2022/11/18 13:11:59;;;;;;;;;;;12.60;74.30;;;;;;5068178;28;19974;-81
2022/11/18 13:20:29;;;;;;;;;;;12.30;74.30;;;;;;5070505;28;19997;-80
2022/11/18 13:25:43;;;;;;;;;;;12.30;74.20;;;;;;5070970;28;20417;-81
2022/11/18 13:28:10;;;;;;;;;;;12.30;74.10;;;;;;5077268;28;19912;-81
2022/11/18 13:30:44;;;;;;;;;;;12.30;74.30;;;;;;5083423;28;19908;-82
2022/11/18 13:33:10;;;;;;;;;;;12.50;73.90;;;;;;5055920;28;20034;-80
2022/11/18 13:35:38;;;;;;;;;;;12.40;74.10;;;;;;5072566;28;19980;-80
2022/11/18 13:38:07;;;;;;;;;;;12.30;74.80;;;;;;5068866;28;19912;-80
2022/11/18 13:43:27;;;;;;;;;;;12.10;75.30;;;;;;5090476;28;20404;-83
2022/11/18 13:45:53;;;;;;;;;;;11.90;75.00;;;;;;5060189;28;19908;-83
2022/11/18 13:48:19;;;;;;;;;;;11.90;75.90;;;;;;5057825;28;19921;-83
2022/11/18 13:50:53;;;;;;;;;;;11.90;76.10;;;;;;5072792;28;19920;-83
2022/11/18 13:53:29;;;;;;;;;;;11.90;75.60;;;;;;5060296;28;19984;-83
2022/11/18 13:56:03;;;;;;;;;;;11.90;76.00;;;;;;5063288;28;19912;-83
2022/11/18 13:58:39;;;;;;;;;;;12.00;75.10;;;;;;5079108;28;20441;-83
2022/11/18 14:01:06;;;;;;;;;;;12.10;75.10;;;;;;5091054;28;19939;-83
2022/11/18 14:03:34;;;;;;;;;;;12.00;74.90;;;;;;5082750;28;19912;-80
2022/11/18 14:05:59;;;;;;;;;;;12.00;75.00;;;;;;5111332;28;19899;-80
2022/11/18 14:08:27;;;;;;;;;;;12.00;75.50;;;;;;5072358;28;19920;-82
2022/11/18 14:10:53;;;;;;;;;;;11.90;75.50;;;;;;5051191;28;19920;-81
2022/11/18 14:13:30;;;;;;;;;;;11.80;76.20;;;;;;5056076;28;20385;-80
2022/11/18 14:16:00;;;;;;;;;;;11.80;75.90;;;;;;5061904;28;20068;-81
2022/11/18 14:18:29;;;;;;;;;;;11.80;75.70;;;;;;5086618;28;19999;-80
2022/11/18 14:20:54;;;;;;;;;;;11.70;76.90;;;;;;5077149;28;20332;-80
2022/11/18 14:23:31;;;;;;;;;;;11.70;77.00;;;;;;5059770;28;19912;-81
2022/11/18 14:25:57;;;;;;;;;;;11.70;77.00;;;;;;5073083;28;20459;-81
2022/11/18 14:28:26;;;;;;;;;;;11.70;76.60;;;;;;5061776;28;20007;-80
2022/11/18 14:30:58;;;;;;;;;;;11.60;77.40;;;;;;5054134;28;19983;-80
2022/11/18 14:33:24;;;;;;;;;;;11.60;78.20;;;;;;5055626;28;20350;-81
2022/11/18 14:35:51;;;;;;;;;;;11.50;78.00;;;;;;5074398;28;19959;-81
2022/11/18 14:38:24;;;;;;;;;;;11.50;78.20;;;;;;5055239;28;19913;-80
2022/11/18 14:40:58;;;;;;;;;;;11.50;78.60;;;;;;5048760;28;19995;-80
2022/11/18 14:43:23;;;;;;;;;;;11.50;78.50;;;;;;5058647;28;19991;-80
2022/11/18 14:45:50;;;;;;;;;;;11.50;78.40;;;;;;5057783;28;20025;-83
2022/11/18 14:48:17;;;;;;;;;;;11.50;78.60;;;;;;5043832;28;19986;-82
2022/11/18 14:50:43;;;;;;;;;;;11.50;78.60;;;;;;5078332;22;20396;-79
2022/11/18 14:53:11;;;;;;;;;;;11.50;78.50;;;;;;5056115;28;19925;-82
2022/11/18 14:55:36;;;;;;;;;;;11.50;78.90;;;;;;5063931;28;20439;-83
2022/11/18 14:58:02;;;;;;;;;;;11.50;77.70;;;;;;5035248;28;19917;-83
2022/11/18 15:00:27;;;;;;;;;;;11.50;77.50;;;;;;5025826;28;19912;-82
2022/11/18 15:02:53;;;;;;;;;;;11.40;78.00;;;;;;5037353;28;19913;-83